sensor_id;sensor_type;location;lat;lon;timestamp;P1;durP1;ratioP1;P2;durP2;ratioP2
55815;SDS011;41744;52.404;16.942;2024-03-02T00:01:09;88.90;;;36.10;;
55815;SDS011;41744;52.404;16.942;2024-03-02T00:03:38;97.63;;;36.60;;
55815;SDS011;41744;52.404;16.942;2024-03-02T00:06:05;94.07;;;37.03;;
55815;SDS011;41744;52.404;16.942;2024-03-02T00:08:32;95.37;;;39.07;;
55815;SDS011;41744;52.404;16.942;2024-03-02T00:10:59;112.77;;;39.17;;
55815;SDS011;41744;52.404;16.942;2024-03-02T00:13:25;99.13;;;39.47;;
55815;SDS011;41744;52.404;16.942;2024-03-02T00:15:51;94.77;;;36.53;;
55815;SDS011;41744;52.404;16.942;2024-03-02T00:18:18;106.20;;;37.80;;
55815;SDS011;41744;52.404;16.942;2024-03-02T00:20:45;102.67;;;38.00;;
55815;SDS011;41744;52.404;16.942;2024-03-02T00:23:14;98.53;;;38.33;;
55815;SDS011;41744;52.404;16.942;2024-03-02T00:28:10;93.93;;;37.67;;
55815;SDS011;41744;52.404;16.942;2024-03-02T00:33:10;93.77;;;37.90;;
55815;SDS011;41744;52.404;16.942;2024-03-02T00:35:36;103.73;;;38.30;;
55815;SDS011;41744;52.404;16.942;2024-03-02T00:38:05;99.73;;;38.23;;
55815;SDS011;41744;52.404;16.942;2024-03-02T00:40:31;105.27;;;39.27;;
55815;SDS011;41744;52.404;16.942;2024-03-02T00:42:58;104.47;;;38.10;;
55815;SDS011;41744;52.404;16.942;2024-03-02T00:45:24;103.00;;;39.30;;
55815;SDS011;41744;52.404;16.942;2024-03-02T00:47:51;104.33;;;39.03;;
55815;SDS011;41744;52.404;16.942;2024-03-02T00:50:17;107.60;;;39.70;;
55815;SDS011;41744;52.404;16.942;2024-03-02T00:52:43;117.87;;;40.50;;
55815;SDS011;41744;52.404;16.942;2024-03-02T00:55:09;97.83;;;37.23;;
55815;SDS011;41744;52.404;16.942;2024-03-02T00:57:35;101.70;;;37.53;;
55815;SDS011;41744;52.404;16.942;2024-03-02T01:00:01;105.37;;;39.23;;
55815;SDS011;41744;52.404;16.942;2024-03-02T01:02:32;102.83;;;38.30;;
55815;SDS011;41744;52.404;16.942;2024-03-02T01:04:58;112.80;;;40.93;;
55815;SDS011;41744;52.404;16.942;2024-03-02T01:07:23;109.43;;;38.70;;
55815;SDS011;41744;52.404;16.942;2024-03-02T01:09:49;101.00;;;39.10;;
55815;SDS011;41744;52.404;16.942;2024-03-02T01:12:15;100.60;;;37.37;;
55815;SDS011;41744;52.404;16.942;2024-03-02T01:14:41;105.63;;;37.10;;
55815;SDS011;41744;52.404;16.942;2024-03-02T01:17:07;98.03;;;37.20;;
55815;SDS011;41744;52.404;16.942;2024-03-02T01:19:33;106.13;;;37.10;;
55815;SDS011;41744;52.404;16.942;2024-03-02T01:21:59;106.60;;;37.57;;
55815;SDS011;41744;52.404;16.942;2024-03-02T01:24:25;106.97;;;37.93;;
55815;SDS011;41744;52.404;16.942;2024-03-02T01:26:51;105.10;;;38.83;;
55815;SDS011;41744;52.404;16.942;2024-03-02T01:29:17;102.93;;;38.20;;
55815;SDS011;41744;52.404;16.942;2024-03-02T01:31:44;102.07;;;37.93;;
55815;SDS011;41744;52.404;16.942;2024-03-02T01:34:11;95.20;;;34.77;;
55815;SDS011;41744;52.404;16.942;2024-03-02T01:36:37;98.77;;;36.70;;
55815;SDS011;41744;52.404;16.942;2024-03-02T01:39:03;95.17;;;36.50;;
55815;SDS011;41744;52.404;16.942;2024-03-02T01:41:34;94.37;;;36.43;;
55815;SDS011;41744;52.404;16.942;2024-03-02T01:44:00;96.53;;;36.37;;
55815;SDS011;41744;52.404;16.942;2024-03-02T01:46:26;96.80;;;36.33;;
55815;SDS011;41744;52.404;16.942;2024-03-02T01:48:52;103.23;;;37.20;;
55815;SDS011;41744;52.404;16.942;2024-03-02T01:51:18;89.33;;;34.43;;
55815;SDS011;41744;52.404;16.942;2024-03-02T01:53:44;90.73;;;34.57;;
55815;SDS011;41744;52.404;16.942;2024-03-02T01:56:10;89.97;;;34.97;;
55815;SDS011;41744;52.404;16.942;2024-03-02T01:58:36;91.50;;;33.77;;
55815;SDS011;41744;52.404;16.942;2024-03-02T02:01:03;91.90;;;35.73;;
55815;SDS011;41744;52.404;16.942;2024-03-02T02:03:29;95.77;;;35.60;;
55815;SDS011;41744;52.404;16.942;2024-03-02T02:05:55;91.70;;;33.30;;
55815;SDS011;41744;52.404;16.942;2024-03-02T02:08:21;81.57;;;32.67;;
55815;SDS011;41744;52.404;16.942;2024-03-02T02:10:47;90.33;;;33.40;;
55815;SDS011;41744;52.404;16.942;2024-03-02T02:13:13;93.30;;;32.40;;
55815;SDS011;41744;52.404;16.942;2024-03-02T02:15:39;76.07;;;31.07;;
55815;SDS011;41744;52.404;16.942;2024-03-02T02:18:05;85.43;;;30.80;;
55815;SDS011;41744;52.404;16.942;2024-03-02T02:20:31;80.53;;;30.47;;
55815;SDS011;41744;52.404;16.942;2024-03-02T02:25:23;92.17;;;31.93;;
55815;SDS011;41744;52.404;16.942;2024-03-02T02:27:49;77.63;;;29.80;;
55815;SDS011;41744;52.404;16.942;2024-03-02T02:30:22;76.90;;;30.53;;
55815;SDS011;41744;52.404;16.942;2024-03-02T02:32:48;80.97;;;30.40;;
55815;SDS011;41744;52.404;16.942;2024-03-02T02:35:14;82.90;;;30.37;;
55815;SDS011;41744;52.404;16.942;2024-03-02T02:37:41;77.63;;;29.97;;
55815;SDS011;41744;52.404;16.942;2024-03-02T02:40:07;76.53;;;28.87;;
55815;SDS011;41744;52.404;16.942;2024-03-02T02:42:34;79.13;;;29.63;;
55815;SDS011;41744;52.404;16.942;2024-03-02T02:45:00;76.83;;;29.67;;
55815;SDS011;41744;52.404;16.942;2024-03-02T02:47:26;77.97;;;29.93;;
55815;SDS011;41744;52.404;16.942;2024-03-02T02:49:53;71.40;;;27.70;;
55815;SDS011;41744;52.404;16.942;2024-03-02T02:52:19;75.83;;;29.17;;
55815;SDS011;41744;52.404;16.942;2024-03-02T02:54:46;78.47;;;29.13;;
55815;SDS011;41744;52.404;16.942;2024-03-02T02:57:12;73.07;;;27.83;;
55815;SDS011;41744;52.404;16.942;2024-03-02T02:59:38;79.07;;;29.67;;
55815;SDS011;41744;52.404;16.942;2024-03-02T03:02:04;75.27;;;28.13;;
55815;SDS011;41744;52.404;16.942;2024-03-02T03:04:30;63.90;;;26.80;;
55815;SDS011;41744;52.404;16.942;2024-03-02T03:06:56;70.77;;;27.43;;
55815;SDS011;41744;52.404;16.942;2024-03-02T03:09:22;74.70;;;28.90;;
55815;SDS011;41744;52.404;16.942;2024-03-02T03:11:48;67.73;;;26.20;;
55815;SDS011;41744;52.404;16.942;2024-03-02T03:14:14;70.23;;;27.63;;
55815;SDS011;41744;52.404;16.942;2024-03-02T03:16:40;70.80;;;27.67;;
55815;SDS011;41744;52.404;16.942;2024-03-02T03:19:06;69.50;;;26.23;;
55815;SDS011;41744;52.404;16.942;2024-03-02T03:21:32;70.00;;;26.60;;
55815;SDS011;41744;52.404;16.942;2024-03-02T03:23:57;78.00;;;27.53;;
55815;SDS011;41744;52.404;16.942;2024-03-02T03:26:23;68.50;;;26.23;;
55815;SDS011;41744;52.404;16.942;2024-03-02T03:28:49;67.27;;;27.47;;
55815;SDS011;41744;52.404;16.942;2024-03-02T03:31:15;70.77;;;26.97;;
55815;SDS011;41744;52.404;16.942;2024-03-02T03:33:42;75.03;;;28.13;;
55815;SDS011;41744;52.404;16.942;2024-03-02T03:36:08;65.27;;;26.63;;
55815;SDS011;41744;52.404;16.942;2024-03-02T03:38:33;70.10;;;27.37;;
55815;SDS011;41744;52.404;16.942;2024-03-02T03:40:59;66.60;;;25.50;;
55815;SDS011;41744;52.404;16.942;2024-03-02T03:43:26;76.37;;;27.73;;
55815;SDS011;41744;52.404;16.942;2024-03-02T03:45:52;68.30;;;27.43;;
55815;SDS011;41744;52.404;16.942;2024-03-02T03:48:17;70.43;;;27.70;;
55815;SDS011;41744;52.404;16.942;2024-03-02T03:50:44;66.40;;;26.23;;
55815;SDS011;41744;52.404;16.942;2024-03-02T03:53:10;65.27;;;25.23;;
55815;SDS011;41744;52.404;16.942;2024-03-02T03:55:35;65.10;;;25.57;;
55815;SDS011;41744;52.404;16.942;2024-03-02T03:58:01;73.73;;;27.30;;
55815;SDS011;41744;52.404;16.942;2024-03-02T04:00:27;64.10;;;25.87;;
55815;SDS011;41744;52.404;16.942;2024-03-02T04:02:53;64.73;;;27.10;;
55815;SDS011;41744;52.404;16.942;2024-03-02T04:05:19;69.17;;;26.73;;
55815;SDS011;41744;52.404;16.942;2024-03-02T04:07:45;67.13;;;25.70;;
55815;SDS011;41744;52.404;16.942;2024-03-02T04:10:11;67.33;;;27.03;;
55815;SDS011;41744;52.404;16.942;2024-03-02T04:12:37;68.80;;;26.67;;
55815;SDS011;41744;52.404;16.942;2024-03-02T04:15:06;65.97;;;26.27;;
55815;SDS011;41744;52.404;16.942;2024-03-02T04:17:33;66.27;;;25.30;;
55815;SDS011;41744;52.404;16.942;2024-03-02T04:20:01;72.93;;;26.20;;
55815;SDS011;41744;52.404;16.942;2024-03-02T04:22:30;71.77;;;27.13;;
55815;SDS011;41744;52.404;16.942;2024-03-02T04:24:56;66.10;;;26.30;;
55815;SDS011;41744;52.404;16.942;2024-03-02T04:27:22;76.87;;;28.63;;
55815;SDS011;41744;52.404;16.942;2024-03-02T04:29:48;67.23;;;26.50;;
55815;SDS011;41744;52.404;16.942;2024-03-02T04:32:13;63.27;;;26.17;;
55815;SDS011;41744;52.404;16.942;2024-03-02T04:34:39;70.10;;;26.93;;
55815;SDS011;41744;52.404;16.942;2024-03-02T04:37:06;66.80;;;27.07;;
55815;SDS011;41744;52.404;16.942;2024-03-02T04:39:32;66.27;;;25.87;;
55815;SDS011;41744;52.404;16.942;2024-03-02T04:41:58;64.40;;;26.97;;
55815;SDS011;41744;52.404;16.942;2024-03-02T04:44:24;64.17;;;25.97;;
55815;SDS011;41744;52.404;16.942;2024-03-02T04:46:49;64.20;;;26.03;;
55815;SDS011;41744;52.404;16.942;2024-03-02T04:49:16;67.97;;;25.77;;
55815;SDS011;41744;52.404;16.942;2024-03-02T04:51:41;61.93;;;25.80;;
55815;SDS011;41744;52.404;16.942;2024-03-02T04:54:07;61.23;;;25.47;;
55815;SDS011;41744;52.404;16.942;2024-03-02T04:56:33;70.20;;;26.07;;
55815;SDS011;41744;52.404;16.942;2024-03-02T04:59:09;61.80;;;25.33;;
55815;SDS011;41744;52.404;16.942;2024-03-02T05:01:35;68.37;;;26.13;;
55815;SDS011;41744;52.404;16.942;2024-03-02T05:04:01;64.07;;;25.43;;
55815;SDS011;41744;52.404;16.942;2024-03-02T05:06:27;67.17;;;25.40;;
55815;SDS011;41744;52.404;16.942;2024-03-02T05:08:54;68.10;;;24.70;;
55815;SDS011;41744;52.404;16.942;2024-03-02T05:11:21;67.20;;;26.40;;
55815;SDS011;41744;52.404;16.942;2024-03-02T05:14:07;69.77;;;26.00;;
55815;SDS011;41744;52.404;16.942;2024-03-02T05:16:36;60.97;;;24.60;;
55815;SDS011;41744;52.404;16.942;2024-03-02T05:19:03;66.07;;;24.70;;
55815;SDS011;41744;52.404;16.942;2024-03-02T05:21:31;67.57;;;26.03;;
55815;SDS011;41744;52.404;16.942;2024-03-02T05:23:58;68.40;;;24.17;;
55815;SDS011;41744;52.404;16.942;2024-03-02T05:26:24;67.37;;;25.73;;
55815;SDS011;41744;52.404;16.942;2024-03-02T05:28:50;65.97;;;24.57;;
55815;SDS011;41744;52.404;16.942;2024-03-02T05:31:16;66.03;;;24.77;;
55815;SDS011;41744;52.404;16.942;2024-03-02T05:33:42;68.33;;;25.60;;
55815;SDS011;41744;52.404;16.942;2024-03-02T05:36:08;64.07;;;24.80;;
55815;SDS011;41744;52.404;16.942;2024-03-02T05:38:34;61.37;;;24.90;;
55815;SDS011;41744;52.404;16.942;2024-03-02T05:41:01;56.60;;;23.47;;
55815;SDS011;41744;52.404;16.942;2024-03-02T05:43:27;61.33;;;25.43;;
55815;SDS011;41744;52.404;16.942;2024-03-02T05:45:53;60.40;;;24.50;;
55815;SDS011;41744;52.404;16.942;2024-03-02T05:48:19;64.77;;;24.93;;
55815;SDS011;41744;52.404;16.942;2024-03-02T05:50:46;62.80;;;23.57;;
55815;SDS011;41744;52.404;16.942;2024-03-02T05:53:12;60.77;;;24.47;;
55815;SDS011;41744;52.404;16.942;2024-03-02T05:55:38;62.30;;;23.63;;
55815;SDS011;41744;52.404;16.942;2024-03-02T05:58:03;63.33;;;24.63;;
55815;SDS011;41744;52.404;16.942;2024-03-02T06:00:48;62.80;;;24.13;;
55815;SDS011;41744;52.404;16.942;2024-03-02T06:03:14;68.33;;;24.73;;
55815;SDS011;41744;52.404;16.942;2024-03-02T06:05:40;59.77;;;24.60;;
55815;SDS011;41744;52.404;16.942;2024-03-02T06:08:06;57.03;;;23.87;;
55815;SDS011;41744;52.404;16.942;2024-03-02T06:10:32;62.37;;;25.07;;
55815;SDS011;41744;52.404;16.942;2024-03-02T06:12:58;60.00;;;24.33;;
55815;SDS011;41744;52.404;16.942;2024-03-02T06:15:24;57.77;;;23.67;;
55815;SDS011;41744;52.404;16.942;2024-03-02T06:17:50;58.30;;;24.17;;
55815;SDS011;41744;52.404;16.942;2024-03-02T06:20:16;60.67;;;24.90;;
55815;SDS011;41744;52.404;16.942;2024-03-02T06:22:42;65.77;;;24.47;;
55815;SDS011;41744;52.404;16.942;2024-03-02T06:25:08;57.70;;;24.07;;
55815;SDS011;41744;52.404;16.942;2024-03-02T06:27:34;56.77;;;24.17;;
55815;SDS011;41744;52.404;16.942;2024-03-02T06:30:00;69.77;;;24.07;;
55815;SDS011;41744;52.404;16.942;2024-03-02T06:32:26;54.27;;;22.87;;
55815;SDS011;41744;52.404;16.942;2024-03-02T06:34:52;56.57;;;22.53;;
55815;SDS011;41744;52.404;16.942;2024-03-02T06:37:18;56.40;;;23.97;;
55815;SDS011;41744;52.404;16.942;2024-03-02T06:39:44;58.00;;;23.40;;
55815;SDS011;41744;52.404;16.942;2024-03-02T06:42:10;61.47;;;23.63;;
55815;SDS011;41744;52.404;16.942;2024-03-02T06:44:36;55.60;;;23.27;;
55815;SDS011;41744;52.404;16.942;2024-03-02T06:47:02;61.13;;;22.73;;
55815;SDS011;41744;52.404;16.942;2024-03-02T06:49:29;56.73;;;22.43;;
55815;SDS011;41744;52.404;16.942;2024-03-02T06:51:55;56.70;;;23.37;;
55815;SDS011;41744;52.404;16.942;2024-03-02T06:54:21;57.70;;;22.97;;
55815;SDS011;41744;52.404;16.942;2024-03-02T06:56:47;55.17;;;23.33;;
55815;SDS011;41744;52.404;16.942;2024-03-02T06:59:13;60.33;;;23.50;;
55815;SDS011;41744;52.404;16.942;2024-03-02T07:01:38;51.67;;;21.00;;
55815;SDS011;41744;52.404;16.942;2024-03-02T07:04:04;57.80;;;23.30;;
55815;SDS011;41744;52.404;16.942;2024-03-02T07:06:31;54.73;;;22.53;;
55815;SDS011;41744;52.404;16.942;2024-03-02T07:08:57;57.60;;;23.73;;
55815;SDS011;41744;52.404;16.942;2024-03-02T07:11:23;53.97;;;23.17;;
55815;SDS011;41744;52.404;16.942;2024-03-02T07:13:49;57.83;;;23.03;;
55815;SDS011;41744;52.404;16.942;2024-03-02T07:16:15;54.53;;;22.90;;
55815;SDS011;41744;52.404;16.942;2024-03-02T07:18:55;59.57;;;23.73;;
55815;SDS011;41744;52.404;16.942;2024-03-02T07:21:22;60.07;;;23.53;;
55815;SDS011;41744;52.404;16.942;2024-03-02T07:23:48;55.90;;;22.93;;
55815;SDS011;41744;52.404;16.942;2024-03-02T07:26:14;54.03;;;23.63;;
55815;SDS011;41744;52.404;16.942;2024-03-02T07:28:41;53.10;;;21.97;;
55815;SDS011;41744;52.404;16.942;2024-03-02T07:31:09;54.90;;;22.60;;
55815;SDS011;41744;52.404;16.942;2024-03-02T07:33:35;53.00;;;22.27;;
55815;SDS011;41744;52.404;16.942;2024-03-02T07:36:01;54.33;;;23.03;;
55815;SDS011;41744;52.404;16.942;2024-03-02T07:38:27;58.93;;;22.73;;
55815;SDS011;41744;52.404;16.942;2024-03-02T07:40:54;59.53;;;23.77;;
55815;SDS011;41744;52.404;16.942;2024-03-02T07:43:20;57.40;;;23.43;;
55815;SDS011;41744;52.404;16.942;2024-03-02T07:45:46;49.60;;;21.20;;
55815;SDS011;41744;52.404;16.942;2024-03-02T07:48:12;51.03;;;21.70;;
55815;SDS011;41744;52.404;16.942;2024-03-02T07:50:39;53.73;;;22.83;;
55815;SDS011;41744;52.404;16.942;2024-03-02T07:53:05;48.70;;;21.87;;
55815;SDS011;41744;52.404;16.942;2024-03-02T07:55:32;56.40;;;24.10;;
55815;SDS011;41744;52.404;16.942;2024-03-02T07:57:58;50.30;;;22.40;;
55815;SDS011;41744;52.404;16.942;2024-03-02T08:00:24;51.87;;;23.83;;
55815;SDS011;41744;52.404;16.942;2024-03-02T08:02:51;51.80;;;22.43;;
55815;SDS011;41744;52.404;16.942;2024-03-02T08:05:17;54.60;;;23.73;;
55815;SDS011;41744;52.404;16.942;2024-03-02T08:07:44;57.50;;;23.57;;
55815;SDS011;41744;52.404;16.942;2024-03-02T08:10:10;51.97;;;21.83;;
55815;SDS011;41744;52.404;16.942;2024-03-02T08:12:36;51.97;;;23.43;;
55815;SDS011;41744;52.404;16.942;2024-03-02T08:15:02;59.23;;;24.13;;
55815;SDS011;41744;52.404;16.942;2024-03-02T08:17:29;53.05;;;23.58;;
55815;SDS011;41744;52.404;16.942;2024-03-02T08:19:55;49.53;;;21.98;;
55815;SDS011;41744;52.404;16.942;2024-03-02T08:22:21;52.40;;;22.23;;
55815;SDS011;41744;52.404;16.942;2024-03-02T08:24:47;50.53;;;22.02;;
55815;SDS011;41744;52.404;16.942;2024-03-02T08:27:14;52.25;;;21.90;;
55815;SDS011;41744;52.404;16.942;2024-03-02T08:29:40;48.88;;;21.83;;
55815;SDS011;41744;52.404;16.942;2024-03-02T08:32:06;57.03;;;22.43;;
55815;SDS011;41744;52.404;16.942;2024-03-02T08:34:32;51.00;;;22.93;;
55815;SDS011;41744;52.404;16.942;2024-03-02T08:37:00;51.03;;;22.30;;
55815;SDS011;41744;52.404;16.942;2024-03-02T08:39:26;49.95;;;21.60;;
55815;SDS011;41744;52.404;16.942;2024-03-02T08:41:52;55.35;;;22.75;;
55815;SDS011;41744;52.404;16.942;2024-03-02T08:44:18;47.65;;;22.40;;
55815;SDS011;41744;52.404;16.942;2024-03-02T08:46:45;51.88;;;22.42;;
55815;SDS011;41744;52.404;16.942;2024-03-02T08:49:11;47.38;;;21.05;;
55815;SDS011;41744;52.404;16.942;2024-03-02T08:51:37;52.87;;;21.70;;
55815;SDS011;41744;52.404;16.942;2024-03-02T08:54:03;49.60;;;21.77;;
55815;SDS011;41744;52.404;16.942;2024-03-02T08:56:30;43.28;;;20.70;;
55815;SDS011;41744;52.404;16.942;2024-03-02T08:58:56;50.45;;;21.85;;
55815;SDS011;41744;52.404;16.942;2024-03-02T09:01:22;48.30;;;21.50;;
55815;SDS011;41744;52.404;16.942;2024-03-02T09:03:48;48.33;;;21.37;;
55815;SDS011;41744;52.404;16.942;2024-03-02T09:06:14;49.70;;;22.15;;
55815;SDS011;41744;52.404;16.942;2024-03-02T09:08:45;46.10;;;20.90;;
55815;SDS011;41744;52.404;16.942;2024-03-02T09:11:11;44.30;;;20.77;;
55815;SDS011;41744;52.404;16.942;2024-03-02T09:13:37;46.47;;;21.65;;
55815;SDS011;41744;52.404;16.942;2024-03-02T09:16:03;47.47;;;21.52;;
55815;SDS011;41744;52.404;16.942;2024-03-02T09:18:30;44.13;;;20.33;;
55815;SDS011;41744;52.404;16.942;2024-03-02T09:20:56;44.40;;;19.60;;
55815;SDS011;41744;52.404;16.942;2024-03-02T09:23:22;43.92;;;20.48;;
55815;SDS011;41744;52.404;16.942;2024-03-02T09:25:48;41.78;;;20.63;;
55815;SDS011;41744;52.404;16.942;2024-03-02T09:28:17;44.42;;;20.67;;
55815;SDS011;41744;52.404;16.942;2024-03-02T09:30:43;45.25;;;21.15;;
55815;SDS011;41744;52.404;16.942;2024-03-02T09:33:09;41.78;;;19.90;;
55815;SDS011;41744;52.404;16.942;2024-03-02T09:35:35;43.47;;;20.52;;
55815;SDS011;41744;52.404;16.942;2024-03-02T09:38:01;45.58;;;20.67;;
55815;SDS011;41744;52.404;16.942;2024-03-02T09:40:28;46.20;;;20.35;;
55815;SDS011;41744;52.404;16.942;2024-03-02T09:42:54;45.63;;;21.02;;
55815;SDS011;41744;52.404;16.942;2024-03-02T09:45:22;48.63;;;21.48;;
55815;SDS011;41744;52.404;16.942;2024-03-02T09:47:49;52.97;;;21.10;;
55815;SDS011;41744;52.404;16.942;2024-03-02T09:50:15;43.83;;;20.00;;
55815;SDS011;41744;52.404;16.942;2024-03-02T09:52:44;47.88;;;19.60;;
55815;SDS011;41744;52.404;16.942;2024-03-02T09:55:13;46.33;;;20.70;;
55815;SDS011;41744;52.404;16.942;2024-03-02T09:57:42;41.63;;;19.40;;
55815;SDS011;41744;52.404;16.942;2024-03-02T10:00:08;43.50;;;19.83;;
55815;SDS011;41744;52.404;16.942;2024-03-02T10:02:39;43.85;;;21.00;;
55815;SDS011;41744;52.404;16.942;2024-03-02T10:05:06;45.80;;;19.98;;
55815;SDS011;41744;52.404;16.942;2024-03-02T10:07:32;43.78;;;19.67;;
55815;SDS011;41744;52.404;16.942;2024-03-02T10:09:58;42.92;;;19.98;;
55815;SDS011;41744;52.404;16.942;2024-03-02T10:12:37;44.03;;;20.17;;
55815;SDS011;41744;52.404;16.942;2024-03-02T10:15:03;45.58;;;19.45;;
55815;SDS011;41744;52.404;16.942;2024-03-02T10:17:30;45.63;;;20.17;;
55815;SDS011;41744;52.404;16.942;2024-03-02T10:19:57;49.63;;;20.50;;
55815;SDS011;41744;52.404;16.942;2024-03-02T10:22:23;42.92;;;20.35;;
55815;SDS011;41744;52.404;16.942;2024-03-02T10:24:49;47.03;;;20.10;;
55815;SDS011;41744;52.404;16.942;2024-03-02T10:27:33;40.92;;;19.80;;
55815;SDS011;41744;52.404;16.942;2024-03-02T10:30:00;44.58;;;20.27;;
55815;SDS011;41744;52.404;16.942;2024-03-02T10:32:28;43.40;;;20.10;;
55815;SDS011;41744;52.404;16.942;2024-03-02T10:34:54;41.53;;;20.25;;
55815;SDS011;41744;52.404;16.942;2024-03-02T10:37:21;43.78;;;21.08;;
55815;SDS011;41744;52.404;16.942;2024-03-02T10:39:47;47.60;;;20.70;;
55815;SDS011;41744;52.404;16.942;2024-03-02T10:42:13;44.35;;;20.27;;
55815;SDS011;41744;52.404;16.942;2024-03-02T10:44:40;43.08;;;21.55;;
55815;SDS011;41744;52.404;16.942;2024-03-02T10:47:06;47.05;;;20.88;;
55815;SDS011;41744;52.404;16.942;2024-03-02T10:49:34;46.67;;;21.17;;
55815;SDS011;41744;52.404;16.942;2024-03-02T10:52:00;43.20;;;21.05;;
55815;SDS011;41744;52.404;16.942;2024-03-02T10:54:27;46.28;;;21.95;;
55815;SDS011;41744;52.404;16.942;2024-03-02T10:57:01;47.00;;;21.23;;
55815;SDS011;41744;52.404;16.942;2024-03-02T10:59:34;47.40;;;21.95;;
55815;SDS011;41744;52.404;16.942;2024-03-02T11:02:02;48.83;;;21.70;;
55815;SDS011;41744;52.404;16.942;2024-03-02T11:04:28;48.03;;;21.73;;
55815;SDS011;41744;52.404;16.942;2024-03-02T11:09:27;47.90;;;22.55;;
55815;SDS011;41744;52.404;16.942;2024-03-02T11:12:03;49.90;;;22.17;;
55815;SDS011;41744;52.404;16.942;2024-03-02T11:14:30;46.83;;;21.65;;
55815;SDS011;41744;52.404;16.942;2024-03-02T11:16:57;47.95;;;22.15;;
55815;SDS011;41744;52.404;16.942;2024-03-02T11:19:23;49.92;;;23.70;;
55815;SDS011;41744;52.404;16.942;2024-03-02T11:21:50;47.80;;;22.08;;
55815;SDS011;41744;52.404;16.942;2024-03-02T11:27:08;52.25;;;23.48;;
55815;SDS011;41744;52.404;16.942;2024-03-02T11:32:04;56.40;;;23.85;;
55815;SDS011;41744;52.404;16.942;2024-03-02T11:36:56;52.25;;;23.05;;
55815;SDS011;41744;52.404;16.942;2024-03-02T11:39:24;53.47;;;23.20;;
55815;SDS011;41744;52.404;16.942;2024-03-02T11:41:50;49.17;;;22.38;;
55815;SDS011;41744;52.404;16.942;2024-03-02T11:44:16;49.58;;;22.75;;
55815;SDS011;41744;52.404;16.942;2024-03-02T11:46:44;51.33;;;23.30;;
55815;SDS011;41744;52.404;16.942;2024-03-02T11:49:14;48.90;;;22.65;;
55815;SDS011;41744;52.404;16.942;2024-03-02T11:51:40;45.67;;;21.20;;
55815;SDS011;41744;52.404;16.942;2024-03-02T11:54:16;51.20;;;22.67;;
55815;SDS011;41744;52.404;16.942;2024-03-02T11:56:42;47.97;;;21.92;;
55815;SDS011;41744;52.404;16.942;2024-03-02T11:59:09;46.70;;;22.67;;
55815;SDS011;41744;52.404;16.942;2024-03-02T12:01:35;51.67;;;23.35;;
55815;SDS011;41744;52.404;16.942;2024-03-02T12:04:01;51.47;;;23.17;;
55815;SDS011;41744;52.404;16.942;2024-03-02T12:06:28;45.67;;;22.23;;
55815;SDS011;41744;52.404;16.942;2024-03-02T12:08:54;53.42;;;23.52;;
55815;SDS011;41744;52.404;16.942;2024-03-02T12:11:21;49.38;;;23.17;;
55815;SDS011;41744;52.404;16.942;2024-03-02T12:13:54;47.15;;;22.75;;
55815;SDS011;41744;52.404;16.942;2024-03-02T12:16:24;46.20;;;21.45;;
55815;SDS011;41744;52.404;16.942;2024-03-02T12:18:50;49.95;;;22.95;;
55815;SDS011;41744;52.404;16.942;2024-03-02T12:21:16;44.10;;;21.77;;
55815;SDS011;41744;52.404;16.942;2024-03-02T12:23:42;49.40;;;22.48;;
55815;SDS011;41744;52.404;16.942;2024-03-02T12:26:08;47.75;;;21.98;;
55815;SDS011;41744;52.404;16.942;2024-03-02T12:28:34;49.63;;;22.77;;
55815;SDS011;41744;52.404;16.942;2024-03-02T12:31:00;50.17;;;22.58;;
55815;SDS011;41744;52.404;16.942;2024-03-02T12:33:26;49.85;;;22.08;;
55815;SDS011;41744;52.404;16.942;2024-03-02T12:35:54;50.28;;;21.92;;
55815;SDS011;41744;52.404;16.942;2024-03-02T12:38:20;48.42;;;22.45;;
55815;SDS011;41744;52.404;16.942;2024-03-02T12:40:47;50.85;;;23.77;;
55815;SDS011;41744;52.404;16.942;2024-03-02T12:43:14;47.97;;;22.80;;
55815;SDS011;41744;52.404;16.942;2024-03-02T12:45:40;48.28;;;23.30;;
55815;SDS011;41744;52.404;16.942;2024-03-02T12:48:06;46.42;;;21.80;;
55815;SDS011;41744;52.404;16.942;2024-03-02T12:50:32;46.22;;;23.42;;
55815;SDS011;41744;52.404;16.942;2024-03-02T12:52:59;48.90;;;22.67;;
55815;SDS011;41744;52.404;16.942;2024-03-02T12:55:25;44.55;;;22.08;;
55815;SDS011;41744;52.404;16.942;2024-03-02T12:57:51;47.47;;;22.42;;
55815;SDS011;41744;52.404;16.942;2024-03-02T13:00:18;43.47;;;21.95;;
55815;SDS011;41744;52.404;16.942;2024-03-02T13:02:45;53.05;;;23.48;;
55815;SDS011;41744;52.404;16.942;2024-03-02T13:05:11;46.95;;;23.25;;
55815;SDS011;41744;52.404;16.942;2024-03-02T13:07:38;48.25;;;22.10;;
55815;SDS011;41744;52.404;16.942;2024-03-02T13:10:04;48.60;;;21.50;;
55815;SDS011;41744;52.404;16.942;2024-03-02T13:12:31;44.78;;;21.75;;
55815;SDS011;41744;52.404;16.942;2024-03-02T13:14:58;46.80;;;21.75;;
55815;SDS011;41744;52.404;16.942;2024-03-02T13:17:24;43.97;;;20.40;;
55815;SDS011;41744;52.404;16.942;2024-03-02T13:19:58;46.03;;;21.02;;
55815;SDS011;41744;52.404;16.942;2024-03-02T13:22:24;41.42;;;19.77;;
55815;SDS011;41744;52.404;16.942;2024-03-02T13:24:51;46.45;;;21.45;;
55815;SDS011;41744;52.404;16.942;2024-03-02T13:27:17;45.38;;;21.85;;
55815;SDS011;41744;52.404;16.942;2024-03-02T13:29:45;49.30;;;21.38;;
55815;SDS011;41744;52.404;16.942;2024-03-02T13:32:12;45.88;;;20.92;;
55815;SDS011;41744;52.404;16.942;2024-03-02T13:34:38;45.05;;;21.17;;
55815;SDS011;41744;52.404;16.942;2024-03-02T13:37:04;41.83;;;20.40;;
55815;SDS011;41744;52.404;16.942;2024-03-02T13:39:31;39.95;;;19.88;;
55815;SDS011;41744;52.404;16.942;2024-03-02T13:41:57;42.65;;;19.88;;
55815;SDS011;41744;52.404;16.942;2024-03-02T13:44:29;42.20;;;21.00;;
55815;SDS011;41744;52.404;16.942;2024-03-02T13:46:55;46.33;;;20.35;;
55815;SDS011;41744;52.404;16.942;2024-03-02T13:49:23;49.80;;;20.73;;
55815;SDS011;41744;52.404;16.942;2024-03-02T13:51:49;42.63;;;19.80;;
55815;SDS011;41744;52.404;16.942;2024-03-02T13:54:15;37.38;;;18.88;;
55815;SDS011;41744;52.404;16.942;2024-03-02T13:56:41;38.92;;;19.13;;
55815;SDS011;41744;52.404;16.942;2024-03-02T13:59:07;40.60;;;20.15;;
55815;SDS011;41744;52.404;16.942;2024-03-02T14:01:33;38.60;;;18.95;;
55815;SDS011;41744;52.404;16.942;2024-03-02T14:03:59;40.85;;;18.52;;
55815;SDS011;41744;52.404;16.942;2024-03-02T14:06:27;43.97;;;18.88;;
55815;SDS011;41744;52.404;16.942;2024-03-02T14:08:53;37.95;;;17.80;;
55815;SDS011;41744;52.404;16.942;2024-03-02T14:11:19;39.75;;;18.60;;
55815;SDS011;41744;52.404;16.942;2024-03-02T14:13:45;38.58;;;17.48;;
55815;SDS011;41744;52.404;16.942;2024-03-02T14:16:18;36.25;;;17.90;;
55815;SDS011;41744;52.404;16.942;2024-03-02T14:18:45;40.63;;;18.13;;
55815;SDS011;41744;52.404;16.942;2024-03-02T14:21:11;40.55;;;18.40;;
55815;SDS011;41744;52.404;16.942;2024-03-02T14:23:37;37.80;;;18.55;;